createdAt,value
2019-05-05T00:01:37.438Z,74.20
2019-05-05T00:04:07.768Z,74.30
2019-05-05T00:06:36.497Z,73.50
2019-05-05T00:09:06.361Z,72.70
2019-05-05T00:11:39.433Z,73.50
2019-05-05T00:14:12.828Z,74.10
2019-05-05T00:16:49.212Z,74.70
2019-05-05T00:19:29.954Z,73.40
2019-05-05T00:21:49.761Z,72.60
2019-05-05T00:24:19.060Z,72.50
2019-05-05T00:26:47.772Z,72.40
2019-05-05T00:29:16.579Z,72.60
2019-05-05T00:31:45.478Z,73.10
2019-05-05T00:34:15.291Z,72.70
2019-05-05T00:36:44.647Z,72.80
2019-05-05T00:39:14.927Z,73.10
2019-05-05T00:41:44.928Z,73.20
2019-05-05T00:44:15.303Z,73.80
2019-05-05T00:46:58.034Z,73.30
2019-05-05T00:49:28.346Z,73.20
2019-05-05T00:51:57.207Z,73.60
2019-05-05T00:54:26.047Z,73.70
2019-05-05T00:56:54.774Z,73.60
2019-05-05T00:59:25.257Z,73.80
2019-05-05T01:02:01.135Z,73.70
2019-05-05T01:04:40.172Z,73.70
2019-05-05T01:07:08.898Z,73.80
2019-05-05T01:09:38.163Z,73.10
2019-05-05T01:12:07.410Z,75.50
2019-05-05T01:14:36.143Z,75.40
2019-05-05T01:17:05.321Z,75.60
2019-05-05T01:19:34.957Z,76.70
2019-05-05T01:22:04.965Z,76.40
2019-05-05T01:24:34.286Z,77.30
2019-05-05T01:27:04.236Z,78.50
2019-05-05T01:29:34.773Z,77.90
2019-05-05T01:32:05.307Z,78.60
2019-05-05T01:34:35.673Z,78.00
2019-05-05T01:37:06.025Z,79.20
2019-05-05T01:39:36.517Z,78.90
2019-05-05T01:42:14.301Z,79.10
2019-05-05T01:44:44.753Z,79.80
2019-05-05T01:47:14.841Z,79.60
2019-05-05T01:49:45.392Z,79.30
2019-05-05T01:52:14.922Z,79.90
2019-05-05T01:54:44.612Z,80.50
2019-05-05T01:57:14.784Z,79.80
2019-05-05T01:59:44.844Z,78.80
2019-05-05T02:02:14.665Z,78.10
2019-05-05T02:04:44.780Z,78.40
2019-05-05T02:07:14.518Z,78.90
2019-05-05T02:09:45.085Z,78.70
2019-05-05T02:12:15.864Z,79.60
2019-05-05T02:14:44.811Z,80.60
2019-05-05T02:17:14.423Z,80.00
2019-05-05T02:19:44.368Z,79.60
2019-05-05T02:22:14.697Z,79.80
2019-05-05T02:24:44.396Z,80.00
2019-05-05T02:27:14.578Z,80.10
2019-05-05T02:29:45.378Z,80.30
2019-05-05T02:32:31.805Z,80.10
2019-05-05T02:35:02.212Z,80.70
2019-05-05T02:37:30.933Z,81.00
2019-05-05T02:40:06.297Z,81.60
2019-05-05T02:42:31.233Z,81.80
2019-05-05T02:45:05.570Z,81.50
2019-05-05T02:47:54.714Z,82.20
2019-05-05T02:50:25.107Z,82.50
2019-05-05T02:52:53.599Z,83.00
2019-05-05T02:55:23.570Z,83.40
2019-05-05T02:57:54.408Z,83.00
2019-05-05T03:00:27.187Z,82.70
2019-05-05T03:02:58.276Z,83.10
2019-05-05T03:05:27.756Z,83.10
2019-05-05T03:07:58.093Z,82.80
2019-05-05T03:10:28.805Z,82.60
2019-05-05T03:13:00.822Z,82.50
2019-05-05T03:15:49.100Z,81.70
2019-05-05T03:18:17.853Z,81.90
2019-05-05T03:20:46.707Z,81.10
2019-05-05T03:23:15.424Z,81.20
2019-05-05T03:25:44.342Z,80.50
2019-05-05T03:28:13.696Z,80.50
2019-05-05T03:30:45.392Z,81.00
2019-05-05T03:33:16.234Z,80.90
2019-05-05T03:35:45.881Z,79.40
2019-05-05T03:38:15.632Z,79.90
2019-05-05T03:40:46.558Z,80.10
2019-05-05T03:43:17.008Z,80.40
2019-05-05T03:45:47.481Z,80.00
2019-05-05T03:48:17.836Z,80.60
2019-05-05T03:50:46.693Z,80.60
2019-05-05T03:53:16.905Z,81.80
2019-05-05T03:55:45.736Z,81.70
2019-05-05T03:58:15.787Z,82.60
2019-05-05T04:00:56.364Z,82.90
2019-05-05T04:03:25.051Z,82.40
2019-05-05T04:05:58.426Z,82.80
2019-05-05T04:08:27.831Z,83.00
2019-05-05T04:10:56.563Z,83.40
2019-05-05T04:13:25.461Z,83.00
2019-05-05T04:16:08.179Z,83.30
2019-05-05T04:18:44.222Z,82.50
2019-05-05T04:21:14.479Z,82.10
2019-05-05T04:23:44.228Z,82.10
2019-05-05T04:26:14.290Z,82.10
2019-05-05T04:28:43.709Z,82.90
2019-05-05T04:31:13.538Z,82.70
2019-05-05T04:33:44.362Z,82.40
2019-05-05T04:36:14.455Z,81.80
2019-05-05T04:38:43.915Z,82.80
2019-05-05T04:41:14.023Z,81.80
2019-05-05T04:43:44.168Z,82.60
2019-05-05T04:46:14.085Z,82.70
2019-05-05T04:48:54.439Z,85.30
2019-05-05T04:51:24.817Z,86.40
2019-05-05T04:54:06.960Z,87.40
2019-05-05T04:56:36.060Z,86.70
2019-05-05T04:59:04.850Z,87.00
2019-05-05T05:01:34.148Z,88.10
2019-05-05T05:04:21.008Z,89.10
2019-05-05T05:06:54.645Z,89.80
2019-05-05T05:09:23.834Z,90.30
2019-05-05T05:11:54.552Z,90.90
2019-05-05T05:14:24.728Z,91.20
2019-05-05T05:16:56.801Z,91.60
2019-05-05T05:19:25.534Z,92.00
2019-05-05T05:22:01.583Z,92.20
2019-05-05T05:24:24.629Z,92.90
2019-05-05T05:26:55.297Z,93.20
2019-05-05T05:29:23.922Z,93.30
2019-05-05T05:31:53.538Z,93.10
2019-05-05T05:34:23.865Z,93.90
2019-05-05T05:36:55.139Z,94.30
2019-05-05T05:39:25.483Z,94.60
2019-05-05T05:41:56.348Z,94.20
2019-05-05T05:44:35.846Z,94.30
2019-05-05T05:47:13.881Z,94.90
2019-05-05T05:49:44.035Z,94.20
2019-05-05T05:52:18.761Z,94.60
2019-05-05T05:54:44.254Z,93.30
2019-05-05T05:57:13.645Z,93.20
2019-05-05T05:59:44.365Z,94.00
2019-05-05T06:02:15.541Z,93.90
2019-05-05T06:04:44.576Z,92.30
2019-05-05T06:07:14.239Z,92.60
2019-05-05T06:09:43.866Z,92.20
2019-05-05T06:12:14.187Z,92.20
2019-05-05T06:14:44.712Z,93.00
2019-05-05T06:17:13.726Z,92.50
2019-05-05T06:19:44.452Z,93.00
2019-05-05T06:22:15.168Z,92.60
2019-05-05T06:24:43.912Z,92.60
2019-05-05T06:27:14.253Z,92.60
2019-05-05T06:29:43.855Z,93.30
2019-05-05T06:32:14.553Z,93.10
2019-05-05T06:34:44.304Z,93.80
2019-05-05T06:37:14.491Z,93.80
2019-05-05T06:39:43.966Z,93.40
2019-05-05T06:42:17.257Z,93.90
2019-05-05T06:44:47.621Z,93.20
2019-05-05T06:47:18.044Z,93.40
2019-05-05T06:49:46.767Z,92.50
2019-05-05T06:52:15.489Z,93.20
2019-05-05T06:54:44.267Z,92.00
2019-05-05T06:57:13.679Z,92.60
2019-05-05T06:59:43.902Z,92.90
2019-05-05T07:02:14.549Z,92.90
2019-05-05T07:04:44.489Z,91.90
2019-05-05T07:07:14.543Z,91.60
2019-05-05T07:09:44.703Z,91.50
2019-05-05T07:12:13.951Z,91.90
2019-05-05T07:14:44.520Z,92.50
2019-05-05T07:17:14.083Z,92.10
2019-05-05T07:19:44.986Z,91.50
2019-05-05T07:22:14.431Z,91.90
2019-05-05T07:24:43.952Z,91.80
2019-05-05T07:27:13.845Z,92.20
2019-05-05T07:29:43.685Z,92.40
2019-05-05T07:32:14.222Z,92.00
2019-05-05T07:34:47.826Z,92.30
2019-05-05T07:37:16.685Z,92.50
2019-05-05T07:39:45.400Z,93.10
2019-05-05T07:42:14.188Z,92.50
2019-05-05T07:44:44.117Z,92.70
2019-05-05T07:47:14.581Z,92.40
2019-05-05T07:49:44.141Z,92.50
2019-05-05T07:52:14.898Z,92.20
2019-05-05T07:54:43.673Z,92.40
2019-05-05T07:57:14.504Z,91.60
2019-05-05T07:59:45.002Z,91.40
2019-05-05T08:02:14.559Z,90.90
2019-05-05T08:04:43.814Z,90.70
2019-05-05T08:07:14.594Z,91.10
2019-05-05T08:09:44.461Z,90.70
2019-05-05T08:12:13.831Z,90.90
2019-05-05T08:14:44.463Z,91.00
2019-05-05T08:17:30.945Z,90.20
2019-05-05T08:20:04.084Z,89.80
2019-05-05T08:22:33.978Z,91.00
2019-05-05T08:25:07.249Z,90.00
2019-05-05T08:27:54.365Z,90.00
2019-05-05T08:30:24.832Z,91.10
2019-05-05T08:32:55.349Z,90.60
2019-05-05T08:35:24.093Z,90.40
2019-05-05T08:37:54.236Z,89.90
2019-05-05T08:40:23.969Z,90.00
2019-05-05T08:42:53.977Z,90.00
2019-05-05T08:45:26.190Z,90.10
2019-05-05T08:47:54.157Z,90.40
2019-05-05T08:50:26.445Z,90.10
2019-05-05T08:52:53.792Z,90.50
2019-05-05T08:55:24.476Z,91.00
2019-05-05T08:57:53.956Z,90.20
2019-05-05T09:00:24.468Z,89.40
2019-05-05T09:02:54.292Z,89.00
2019-05-05T09:05:23.899Z,89.60
2019-05-05T09:07:54.589Z,89.10
2019-05-05T09:10:23.662Z,89.00
2019-05-05T09:12:54.269Z,90.50
2019-05-05T09:15:24.273Z,90.40
2019-05-05T09:17:54.525Z,90.10
2019-05-05T09:20:24.275Z,89.80
2019-05-05T09:22:53.613Z,89.90
2019-05-05T09:25:24.179Z,90.20
2019-05-05T09:27:56.990Z,89.80
2019-05-05T09:30:31.504Z,89.80
2019-05-05T09:33:00.298Z,90.70
2019-05-05T09:35:29.010Z,90.70
2019-05-05T09:37:58.153Z,91.00
2019-05-05T09:40:40.905Z,88.50
2019-05-05T09:43:10.320Z,90.40
2019-05-05T09:45:39.732Z,86.60
2019-05-05T09:48:08.649Z,87.70
2019-05-05T09:50:37.432Z,86.70
2019-05-05T09:53:06.355Z,87.10
2019-05-05T09:55:35.164Z,84.70
2019-05-05T09:58:04.478Z,83.40
2019-05-05T10:00:34.950Z,83.00
2019-05-05T10:03:03.877Z,81.20
2019-05-05T10:05:34.240Z,81.20
2019-05-05T10:08:03.622Z,82.50
2019-05-05T10:10:33.694Z,78.90
2019-05-05T10:13:04.144Z,78.60
2019-05-05T10:15:33.162Z,79.30
2019-05-05T10:18:03.511Z,79.70
2019-05-05T10:20:34.235Z,78.40
2019-05-05T10:23:05.020Z,73.40
2019-05-05T10:25:37.880Z,72.90
2019-05-05T10:28:06.733Z,71.50
2019-05-05T10:30:36.014Z,68.80
2019-05-05T10:33:04.772Z,70.10
2019-05-05T10:35:34.476Z,73.60
2019-05-05T10:38:03.452Z,70.40
2019-05-05T10:40:34.011Z,70.50
2019-05-05T10:43:04.366Z,68.90
2019-05-05T10:45:33.379Z,67.50
2019-05-05T10:48:04.215Z,63.80
2019-05-05T10:50:34.293Z,65.50
2019-05-05T10:53:05.099Z,66.30
2019-05-05T10:55:34.698Z,64.20
2019-05-05T10:58:03.998Z,64.60
2019-05-05T11:00:41.344Z,64.60
2019-05-05T11:03:10.160Z,62.30
2019-05-05T11:05:38.984Z,63.40
2019-05-05T11:08:07.701Z,63.10
2019-05-05T11:10:36.459Z,60.30
2019-05-05T11:13:05.663Z,60.90
2019-05-05T11:15:34.373Z,61.00
2019-05-05T11:18:03.992Z,60.00
2019-05-05T11:20:34.095Z,58.10
2019-05-05T11:23:04.835Z,58.20
2019-05-05T11:25:33.835Z,58.30
2019-05-05T11:28:04.397Z,57.60
2019-05-05T11:30:36.079Z,56.00
2019-05-05T11:33:11.669Z,56.50
2019-05-05T11:35:49.226Z,56.60
2019-05-05T11:38:19.409Z,56.30
2019-05-05T11:40:48.125Z,57.10
2019-05-05T11:43:17.188Z,56.50
2019-05-05T11:45:46.073Z,57.20
2019-05-05T11:48:14.950Z,56.60
2019-05-05T11:50:43.855Z,56.80
2019-05-05T11:53:14.446Z,56.30
2019-05-05T11:55:44.271Z,55.20
2019-05-05T11:58:14.335Z,54.90
2019-05-05T12:00:43.840Z,54.20
2019-05-05T12:03:14.386Z,53.30
2019-05-05T12:05:44.285Z,55.20
2019-05-05T12:08:14.628Z,55.40
2019-05-05T12:10:51.489Z,55.00
2019-05-05T12:13:20.214Z,55.20
2019-05-05T12:15:50.585Z,53.40
2019-05-05T12:18:19.365Z,53.60
2019-05-05T12:20:48.144Z,52.60
2019-05-05T12:23:16.960Z,53.50
2019-05-05T12:25:56.929Z,53.90
2019-05-05T12:28:24.882Z,53.10
2019-05-05T12:31:08.161Z,51.70
2019-05-05T12:33:36.952Z,52.20
2019-05-05T12:36:06.013Z,53.00
2019-05-05T12:38:34.906Z,52.40
2019-05-05T12:41:04.313Z,51.50
2019-05-05T12:43:34.019Z,53.10
2019-05-05T12:46:07.298Z,53.60
2019-05-05T12:48:40.349Z,52.30
2019-05-05T12:51:09.063Z,52.30
2019-05-05T12:53:37.800Z,52.80
2019-05-05T12:56:06.658Z,49.70
2019-05-05T12:58:35.904Z,50.30
2019-05-05T13:01:06.283Z,49.80
2019-05-05T13:03:35.061Z,50.60
2019-05-05T13:06:04.159Z,50.70
2019-05-05T13:08:34.009Z,51.90
2019-05-05T13:11:04.071Z,52.10
2019-05-05T13:13:34.599Z,52.10
2019-05-05T13:16:04.293Z,51.20
2019-05-05T13:18:33.926Z,51.90
2019-05-05T13:21:16.439Z,51.30
2019-05-05T13:24:01.946Z,51.50
2019-05-05T13:26:46.222Z,51.50
2019-05-05T13:29:14.662Z,51.60
2019-05-05T13:31:44.804Z,51.30
2019-05-05T13:34:13.760Z,49.90
2019-05-05T13:36:44.092Z,49.80
2019-05-05T13:39:14.442Z,50.30
2019-05-05T13:41:44.849Z,51.20
2019-05-05T13:44:15.555Z,52.70
2019-05-05T13:46:44.354Z,53.70
2019-05-05T13:49:19.178Z,54.60
2019-05-05T13:51:47.876Z,55.90
2019-05-05T13:54:16.663Z,56.10
2019-05-05T13:56:45.411Z,55.00
2019-05-05T13:59:14.316Z,55.80
2019-05-05T14:01:44.812Z,55.70
2019-05-05T14:04:13.858Z,56.00
2019-05-05T14:06:44.449Z,56.60
2019-05-05T14:09:13.792Z,54.70
2019-05-05T14:11:44.557Z,54.10
2019-05-05T14:14:13.763Z,52.20
2019-05-05T14:16:44.621Z,51.10
2019-05-05T14:19:14.657Z,50.80
2019-05-05T14:21:44.611Z,50.20
2019-05-05T14:24:15.468Z,48.40
2019-05-05T14:26:44.181Z,48.90
2019-05-05T14:29:14.723Z,48.70
2019-05-05T14:31:44.628Z,48.50
2019-05-05T14:34:15.030Z,48.30
2019-05-05T14:36:53.362Z,49.50
2019-05-05T14:39:23.870Z,47.70
2019-05-05T14:41:53.955Z,46.60
2019-05-05T14:44:24.019Z,45.90
2019-05-05T14:46:52.999Z,46.20
2019-05-05T14:49:21.749Z,45.30
2019-05-05T14:51:50.473Z,44.50
2019-05-05T14:54:19.196Z,46.00
2019-05-05T14:56:47.908Z,46.50
2019-05-05T14:59:16.638Z,45.00
2019-05-05T15:01:45.377Z,44.30
2019-05-05T15:04:15.728Z,42.50
2019-05-05T15:06:46.083Z,44.70
2019-05-05T15:09:33.639Z,44.60
2019-05-05T15:12:05.191Z,44.00
2019-05-05T15:14:34.023Z,43.10
2019-05-05T15:17:03.681Z,43.10
2019-05-05T15:19:34.030Z,42.10
2019-05-05T15:22:03.751Z,41.20
2019-05-05T15:24:33.591Z,42.00
2019-05-05T15:27:02.416Z,42.70
2019-05-05T15:29:31.208Z,41.90
2019-05-05T15:31:59.927Z,41.40
2019-05-05T15:34:28.804Z,41.90
2019-05-05T15:36:59.142Z,40.50
2019-05-05T15:39:27.928Z,38.60
2019-05-05T15:41:56.721Z,38.00
2019-05-05T15:44:26.946Z,39.60
2019-05-05T15:46:57.871Z,38.50
2019-05-05T15:49:26.092Z,39.50
2019-05-05T15:51:54.821Z,40.20
2019-05-05T15:54:23.759Z,40.70
2019-05-05T15:57:02.995Z,41.50
2019-05-05T15:59:23.955Z,40.70
2019-05-05T16:01:54.731Z,42.00
2019-05-05T16:04:23.713Z,43.50
2019-05-05T16:06:54.066Z,45.40
2019-05-05T16:09:23.072Z,45.30
2019-05-05T16:11:51.781Z,45.40
2019-05-05T16:14:21.171Z,44.90
2019-05-05T16:16:51.533Z,45.00
2019-05-05T16:19:28.167Z,45.50
2019-05-05T16:21:58.584Z,45.00
2019-05-05T16:24:29.025Z,45.50
2019-05-05T16:26:57.811Z,46.10
2019-05-05T16:29:26.499Z,46.70
2019-05-05T16:31:56.846Z,47.90
2019-05-05T16:34:25.556Z,48.50
2019-05-05T16:36:56.940Z,47.60
2019-05-05T16:39:25.637Z,47.10
2019-05-05T16:41:56.477Z,47.30
2019-05-05T16:44:25.172Z,47.20
2019-05-05T16:46:54.037Z,48.30
2019-05-05T16:49:22.981Z,48.60
2019-05-05T16:51:54.526Z,49.30
2019-05-05T16:54:24.994Z,49.70
2019-05-05T16:56:53.723Z,49.80
2019-05-05T16:59:23.732Z,49.70
2019-05-05T17:01:54.095Z,49.40
2019-05-05T17:04:24.346Z,49.60
2019-05-05T17:06:54.677Z,50.00
2019-05-05T17:09:25.104Z,50.50
2019-05-05T17:12:09.280Z,50.80
2019-05-05T17:14:40.346Z,50.60
2019-05-05T17:17:10.696Z,51.00
2019-05-05T17:19:41.056Z,51.80
2019-05-05T17:22:11.484Z,52.00
2019-05-05T17:24:40.184Z,52.90
2019-05-05T17:27:08.934Z,52.80
2019-05-05T17:29:37.704Z,53.00
2019-05-05T17:32:06.411Z,53.40
2019-05-05T17:34:35.290Z,54.00
2019-05-05T17:37:04.364Z,53.60
2019-05-05T17:39:34.755Z,53.50
2019-05-05T17:42:11.019Z,53.10
2019-05-05T17:44:46.798Z,54.40
2019-05-05T17:47:24.439Z,53.70
2019-05-05T17:49:54.873Z,53.20
2019-05-05T17:52:28.395Z,53.40
2019-05-05T17:54:58.078Z,53.90
2019-05-05T17:57:26.721Z,53.70
2019-05-05T17:59:55.536Z,53.80
2019-05-05T18:02:24.406Z,53.60
2019-05-05T18:04:54.070Z,54.00
2019-05-05T18:07:24.745Z,54.00
2019-05-05T18:09:55.124Z,54.20
2019-05-05T18:12:25.585Z,55.80
2019-05-05T18:15:05.237Z,57.10
2019-05-05T18:17:34.098Z,57.40
2019-05-05T18:20:04.452Z,59.00
2019-05-05T18:22:34.280Z,61.50
2019-05-05T18:25:03.875Z,61.90
2019-05-05T18:27:34.361Z,60.10
2019-05-05T18:30:03.969Z,60.90
2019-05-05T18:32:34.216Z,60.20
2019-05-05T18:35:06.518Z,62.40
2019-05-05T18:37:34.739Z,62.70
2019-05-05T18:40:04.525Z,62.80
2019-05-05T18:42:34.005Z,62.00
2019-05-05T18:45:07.191Z,62.20
2019-05-05T18:47:35.945Z,61.80
2019-05-05T18:50:06.941Z,64.30
2019-05-05T18:52:35.650Z,63.30
2019-05-05T18:55:08.357Z,63.70
2019-05-05T18:57:37.056Z,64.70
2019-05-05T19:00:10.368Z,66.90
2019-05-05T19:02:46.896Z,67.30
2019-05-05T19:05:24.587Z,67.90
2019-05-05T19:07:56.155Z,68.20
2019-05-05T19:10:25.080Z,69.10
2019-05-05T19:12:54.223Z,69.40
2019-05-05T19:15:24.439Z,69.50
2019-05-05T19:17:53.380Z,70.20
2019-05-05T19:20:24.456Z,70.00
2019-05-05T19:23:03.504Z,69.70
2019-05-05T19:25:31.724Z,71.10
2019-05-05T19:28:00.435Z,71.40
2019-05-05T19:30:29.249Z,72.00
2019-05-05T19:32:58.048Z,73.00
2019-05-05T19:35:40.713Z,74.20
2019-05-05T19:37:57.170Z,73.40
2019-05-05T19:40:25.872Z,73.90
2019-05-05T19:42:54.590Z,74.30
2019-05-05T19:45:24.127Z,74.20
2019-05-05T19:47:53.721Z,74.50
2019-05-05T19:50:24.522Z,75.90
2019-05-05T19:52:53.868Z,76.40
2019-05-05T19:55:22.819Z,75.50
2019-05-05T19:57:53.906Z,76.20
2019-05-05T20:00:23.473Z,77.80
2019-05-05T20:03:03.708Z,78.40
2019-05-05T20:05:24.590Z,78.60
2019-05-05T20:07:55.307Z,79.50
2019-05-05T20:10:23.913Z,79.70
2019-05-05T20:12:54.008Z,80.00
2019-05-05T20:15:27.364Z,80.80
2019-05-05T20:17:56.080Z,81.30
2019-05-05T20:20:24.808Z,81.50
2019-05-05T20:22:54.768Z,82.00
2019-05-05T20:25:24.379Z,82.50
2019-05-05T20:27:55.729Z,83.40
2019-05-05T20:30:24.671Z,83.40
2019-05-05T20:32:58.147Z,83.30
2019-05-05T20:35:28.543Z,85.00
2019-05-05T20:38:02.022Z,84.40
2019-05-05T20:40:35.160Z,84.20
2019-05-05T20:43:04.144Z,83.90
2019-05-05T20:45:34.641Z,84.20
2019-05-05T20:48:04.510Z,84.70
2019-05-05T20:50:34.341Z,85.40
2019-05-05T20:53:04.903Z,85.70
2019-05-05T20:55:34.038Z,86.50
2019-05-05T20:58:04.723Z,87.10
2019-05-05T21:00:34.803Z,87.60
2019-05-05T21:03:04.818Z,87.50
2019-05-05T21:05:34.479Z,87.70
2019-05-05T21:08:04.867Z,87.90
2019-05-05T21:10:34.787Z,88.00
2019-05-05T21:13:03.873Z,88.00
2019-05-05T21:15:34.058Z,88.90
2019-05-05T21:18:04.913Z,89.50
2019-05-05T21:20:34.684Z,89.70
2019-05-05T21:23:05.227Z,90.10
2019-05-05T21:25:38.795Z,90.00
2019-05-05T21:28:07.557Z,90.00
2019-05-05T21:30:36.399Z,89.20
2019-05-05T21:33:05.137Z,89.00
2019-05-05T21:35:34.841Z,89.20
2019-05-05T21:38:04.765Z,89.40
2019-05-05T21:40:34.618Z,90.00
2019-05-05T21:43:04.916Z,90.20
2019-05-05T21:45:34.727Z,90.30
2019-05-05T21:48:04.431Z,90.40
2019-05-05T21:50:35.153Z,90.10
2019-05-05T21:53:17.501Z,90.20
2019-05-05T21:55:50.312Z,90.30
2019-05-05T21:58:25.334Z,90.10
2019-05-05T22:00:55.934Z,90.30
2019-05-05T22:03:29.090Z,90.40
2019-05-05T22:05:57.811Z,90.60
2019-05-05T22:08:26.633Z,90.70
2019-05-05T22:10:55.359Z,90.80
2019-05-05T22:13:24.239Z,91.00
2019-05-05T22:15:54.602Z,91.40
2019-05-05T22:18:23.549Z,91.40
2019-05-05T22:21:06.045Z,91.70
2019-05-05T22:23:36.820Z,92.00
2019-05-05T22:26:05.240Z,92.10
2019-05-05T22:28:34.183Z,92.00
2019-05-05T22:31:04.661Z,92.30
2019-05-05T22:33:34.166Z,92.60
2019-05-05T22:36:04.466Z,92.90
2019-05-05T22:38:33.961Z,93.20
2019-05-05T22:41:02.972Z,92.90
2019-05-05T22:43:31.693Z,93.30
2019-05-05T22:46:00.413Z,93.30
2019-05-05T22:48:29.135Z,93.30
2019-05-05T22:50:58.933Z,93.60
2019-05-05T22:53:27.631Z,93.80
2019-05-05T22:55:57.468Z,93.80
2019-05-05T22:58:26.216Z,93.70
2019-05-05T23:00:55.140Z,93.70
2019-05-05T23:03:31.204Z,93.80
2019-05-05T23:06:01.709Z,94.00
2019-05-05T23:08:31.644Z,94.10
2019-05-05T23:11:00.376Z,94.10
2019-05-05T23:13:29.089Z,94.20
2019-05-05T23:15:59.426Z,94.00
2019-05-05T23:18:30.129Z,94.20
2019-05-05T23:21:06.439Z,94.20
2019-05-05T23:23:36.811Z,94.30
2019-05-05T23:26:23.147Z,94.10
2019-05-05T23:28:53.578Z,94.00
2019-05-05T23:31:24.141Z,94.10
2019-05-05T23:33:54.697Z,93.90
2019-05-05T23:36:24.200Z,94.10
2019-05-05T23:38:54.902Z,94.10
2019-05-05T23:41:25.697Z,94.10
2019-05-05T23:43:54.610Z,94.20
2019-05-05T23:46:24.121Z,94.20
2019-05-05T23:48:53.662Z,94.20
2019-05-05T23:51:24.254Z,94.10
2019-05-05T23:53:55.093Z,94.20
2019-05-05T23:56:24.076Z,94.40
2019-05-05T23:58:54.910Z,94.50
